Etusivu
METAR-TAF:

METAR-TAF

Lentoasemat :

Kerrville Municipal Airport (Louis Schreiner Field)

Kerrville, Texas, Yhdysvallat

Leveyspiiri: 29-58N, Pituuspiiri: 099-05W, korkeus merenpinnasta: 493 m

Tämänhetkinen sää

Tämä raportti tehtiin 26 minuuttia sitten, kello 03.35 UTC
tyyntä
Lämpötila 11°C
Kosteus 40%
Ilmanpaine 1027 hPa
Näkyvyys: 16.1 km
selkeää

METAR: KERV 290335Z AUTO 00000KT 10SM CLR 11/M02 A3034 RMK AO2 T01071023

Aika: 22:01 (04:01 UTC)


TAF: puuttuu

Säähavainnot ja -ennusteet yli 4000 lentoasemalta (METAR- ja TAF-raportit).

Käytössä olevat sääasemat on merkitty karttaan keltaisilla ja punaisilla pisteillä.

Aseta hiiri pisteen päälle nähdäksesi sääaseman nimen.

Klikkaa sitten nähdäksesi säähavainnot ja -ennusteet.

Kartan vaihtaminen: klikkaa mustalla rastilla varustettuja vihreitä pisteitä, niin voit zoomata sisään; viivalla varustettua vihreää pistettä, niin voit zoomata ulos tai vihreitä nuolia, niin pääset viereisille kartoille.


METAR-TAF: